createdAt,value
2023-02-08T00:01:53.655Z,102962.34
2023-02-08T00:04:20.218Z,102958.56
2023-02-08T00:06:46.733Z,102958.81
2023-02-08T00:09:14.000Z,102954.03
2023-02-08T00:11:40.456Z,102954.75
2023-02-08T00:14:08.915Z,102953.09
2023-02-08T00:16:35.536Z,102947.94
2023-02-08T00:19:02.178Z,102954.75
2023-02-08T00:21:28.716Z,102949.59
2023-02-08T00:23:55.228Z,102952.91
2023-02-08T00:26:21.865Z,102952.91
2023-02-08T00:28:49.358Z,102949.41
2023-02-08T00:31:17.700Z,102950.97
2023-02-08T00:33:44.457Z,102945.81
2023-02-08T00:36:12.211Z,102968.75
2023-02-08T00:38:41.779Z,102961.34
2023-02-08T00:41:08.828Z,102951.53
2023-02-08T00:43:35.868Z,102959.22
2023-02-08T00:46:02.561Z,102950.06
2023-02-08T00:48:29.187Z,102946.06
2023-02-08T00:51:01.714Z,102949.03
2023-02-08T00:53:28.323Z,102949.03
2023-02-08T00:55:55.505Z,102946.25
2023-02-08T00:58:22.317Z,102954.03
2023-02-08T01:00:51.264Z,102952.94
2023-02-08T01:03:17.880Z,102953.81
2023-02-08T01:05:44.574Z,102961.72
2023-02-08T01:08:11.185Z,102952.69
2023-02-08T01:10:38.001Z,102952.69
2023-02-08T01:13:04.757Z,102960.50
2023-02-08T01:15:31.284Z,102968.66
2023-02-08T01:17:58.227Z,102959.31
2023-02-08T01:20:24.821Z,102961.53
2023-02-08T01:22:53.720Z,102952.63
2023-02-08T01:25:20.204Z,102950.69
2023-02-08T01:27:46.988Z,102957.91
2023-02-08T01:30:13.966Z,102954.56
2023-02-08T01:32:40.483Z,102947.63
2023-02-08T01:35:07.062Z,102944.00
2023-02-08T01:37:33.571Z,102937.91
2023-02-08T01:40:00.135Z,102942.06
2023-02-08T01:42:26.953Z,102942.91
2023-02-08T01:44:59.461Z,102940.13
2023-02-08T01:47:26.495Z,102937.38
2023-02-08T01:49:53.131Z,102938.22
2023-02-08T01:52:21.709Z,102941.81
2023-02-08T01:54:54.713Z,102929.56
2023-02-08T01:57:22.333Z,102927.91
2023-02-08T01:59:51.983Z,102931.13
2023-02-08T02:02:20.919Z,102932.69
2023-02-08T02:04:48.608Z,102929.88
2023-02-08T02:07:16.239Z,102925.13
2023-02-08T02:09:45.568Z,102922.88
2023-02-08T02:12:12.364Z,102914.38
2023-02-08T02:14:39.221Z,102918.72
2023-02-08T02:17:06.321Z,102909.81
2023-02-08T02:19:54.987Z,102910.22
2023-02-08T02:22:39.729Z,102907.56
2023-02-08T02:25:09.396Z,102904.50
2023-02-08T02:27:38.898Z,102906.56
2023-02-08T02:30:11.433Z,102898.75
2023-02-08T02:33:01.563Z,102892.78
2023-02-08T02:35:35.569Z,102899.56
2023-02-08T02:38:09.314Z,102903.50
2023-02-08T02:40:54.825Z,102898.84
2023-02-08T02:43:39.989Z,102902.78
2023-02-08T02:46:12.455Z,102900.16
2023-02-08T02:48:48.182Z,102896.84
2023-02-08T02:51:17.755Z,102902.97
2023-02-08T02:53:54.424Z,102899.88
2023-02-08T02:56:26.859Z,102895.13
2023-02-08T02:58:56.685Z,102897.44
2023-02-08T03:01:26.141Z,102895.31
2023-02-08T03:03:53.323Z,102888.22
2023-02-08T03:06:29.212Z,102886.56
2023-02-08T03:09:03.963Z,102891.84
2023-02-08T03:11:35.307Z,102887.91
2023-02-08T03:14:08.069Z,102891.38
2023-02-08T03:16:49.881Z,102885.28
2023-02-08T03:19:27.768Z,102896.66
2023-02-08T03:22:12.347Z,102880.25
2023-02-08T03:24:54.252Z,102877.75
2023-02-08T03:27:23.830Z,102874.41
2023-02-08T03:29:56.364Z,102883.84
2023-02-08T03:32:35.096Z,102888.22
2023-02-08T03:35:08.993Z,102885.25
2023-02-08T03:37:45.551Z,102888.84
2023-02-08T03:40:16.817Z,102888.25
2023-02-08T03:42:45.643Z,102894.50
2023-02-08T03:45:38.528Z,102889.25
2023-02-08T03:48:06.897Z,102895.06
2023-02-08T03:50:35.339Z,102906.59
2023-02-08T03:53:02.221Z,102905.16
2023-02-08T03:55:31.272Z,102901.72
2023-02-08T03:58:01.434Z,102901.81
2023-02-08T04:00:30.450Z,102902.31
2023-02-08T04:02:59.952Z,102902.09
2023-02-08T04:05:26.881Z,102907.38
2023-02-08T04:07:53.622Z,102904.84
2023-02-08T04:10:20.576Z,102893.50
2023-02-08T04:12:48.218Z,102904.03
2023-02-08T04:15:15.294Z,102901.13
2023-02-08T04:17:41.756Z,102899.22
2023-02-08T04:20:08.649Z,102897.06
2023-02-08T04:22:35.229Z,102888.06
2023-02-08T04:25:01.730Z,102886.00
2023-02-08T04:27:28.257Z,102893.41
2023-02-08T04:29:54.765Z,102897.25
2023-02-08T04:32:21.404Z,102886.13
2023-02-08T04:34:47.911Z,102899.41
2023-02-08T04:37:14.512Z,102886.41
2023-02-08T04:39:41.035Z,102904.56
2023-02-08T04:42:08.529Z,102894.16
2023-02-08T04:44:35.109Z,102892.22
2023-02-08T04:47:01.725Z,102895.56
2023-02-08T04:49:28.246Z,102888.16
2023-02-08T04:51:54.844Z,102897.16
2023-02-08T04:54:21.524Z,102892.22
2023-02-08T04:56:48.072Z,102894.66
2023-02-08T04:59:14.617Z,102904.13
2023-02-08T05:01:41.265Z,102903.28
2023-02-08T05:04:08.006Z,102893.59
2023-02-08T05:06:34.575Z,102892.78
2023-02-08T05:09:01.068Z,102890.63
2023-02-08T05:11:27.595Z,102892.81
2023-02-08T05:13:54.132Z,102891.13
2023-02-08T05:16:20.680Z,102891.13
2023-02-08T05:18:47.219Z,102900.34
2023-02-08T05:21:13.687Z,102894.59
2023-02-08T05:23:40.285Z,102898.56
2023-02-08T05:26:07.715Z,102893.78
2023-02-08T05:28:34.488Z,102890.19
2023-02-08T05:31:09.492Z,102887.19
2023-02-08T05:33:36.095Z,102887.91
2023-02-08T05:36:04.910Z,102888.03
2023-02-08T05:38:31.765Z,102881.06
2023-02-08T05:40:58.260Z,102882.06
2023-02-08T05:43:25.122Z,102888.53
2023-02-08T05:45:51.735Z,102890.44
2023-02-08T05:48:18.700Z,102890.44
2023-02-08T05:50:45.243Z,102887.81
2023-02-08T05:53:14.296Z,102889.03
2023-02-08T05:55:43.956Z,102886.75
2023-02-08T05:58:10.512Z,102891.66
2023-02-08T06:00:37.113Z,102899.28
2023-02-08T06:03:03.728Z,102899.44
2023-02-08T06:05:31.112Z,102897.16
2023-02-08T06:07:57.779Z,102904.22
2023-02-08T06:10:24.507Z,102906.72
2023-02-08T06:12:51.039Z,102905.91
2023-02-08T06:15:17.581Z,102898.72
2023-02-08T06:17:44.187Z,102910.09
2023-02-08T06:20:10.984Z,102909.97
2023-02-08T06:22:37.770Z,102912.00
2023-02-08T06:25:04.442Z,102915.34
2023-02-08T06:27:31.040Z,102912.47
2023-02-08T06:29:57.628Z,102925.41
2023-02-08T06:32:24.134Z,102919.41
2023-02-08T06:34:51.517Z,102918.94
2023-02-08T06:37:18.696Z,102912.94
2023-02-08T06:39:45.384Z,102908.75
2023-02-08T06:42:12.139Z,102917.25
2023-02-08T06:44:45.914Z,102918.94
2023-02-08T06:47:18.301Z,102927.56
2023-02-08T06:49:44.925Z,102925.53
2023-02-08T06:52:11.526Z,102927.91
2023-02-08T06:54:38.233Z,102926.59
2023-02-08T06:57:05.842Z,102926.50
2023-02-08T06:59:32.485Z,102923.47
2023-02-08T07:02:01.135Z,102921.06
2023-02-08T07:04:27.850Z,102919.66
2023-02-08T07:06:54.427Z,102916.56
2023-02-08T07:09:21.135Z,102929.72
2023-02-08T07:11:47.723Z,102926.03
2023-02-08T07:14:16.202Z,102921.22
2023-02-08T07:16:42.835Z,102928.50
2023-02-08T07:19:09.808Z,102923.78
2023-02-08T07:21:37.402Z,102920.66
2023-02-08T07:24:04.331Z,102916.75
2023-02-08T07:26:31.070Z,102916.75
2023-02-08T07:28:58.372Z,102916.88
2023-02-08T07:31:26.132Z,102917.56
2023-02-08T07:33:53.112Z,102911.47
2023-02-08T07:36:20.040Z,102914.81
2023-02-08T07:38:48.038Z,102917.91
2023-02-08T07:41:15.376Z,102915.00
2023-02-08T07:43:43.079Z,102913.81
2023-02-08T07:46:11.124Z,102904.13
2023-02-08T07:48:40.124Z,102905.88
2023-02-08T07:51:07.861Z,102905.84
2023-02-08T07:53:36.225Z,102908.84
2023-02-08T07:56:03.430Z,102913.78
2023-02-08T07:58:30.186Z,102913.09
2023-02-08T08:00:57.417Z,102911.72
2023-02-08T08:03:25.041Z,102907.03
2023-02-08T08:05:54.681Z,102912.63
2023-02-08T08:08:21.580Z,102902.19
2023-02-08T08:10:49.643Z,102905.34
2023-02-08T08:13:16.162Z,102906.13
2023-02-08T08:15:42.771Z,102905.47
2023-02-08T08:18:09.435Z,102901.91
2023-02-08T08:20:36.179Z,102901.41
2023-02-08T08:23:06.256Z,102904.63
2023-02-08T08:25:32.829Z,102907.03
2023-02-08T08:27:59.435Z,102916.91
2023-02-08T08:30:26.138Z,102911.09
2023-02-08T08:32:52.831Z,102915.44
2023-02-08T08:35:19.862Z,102911.81
2023-02-08T08:37:46.342Z,102911.28
2023-02-08T08:40:12.963Z,102906.31
2023-02-08T08:42:39.874Z,102911.88
2023-02-08T08:45:07.157Z,102911.34
2023-02-08T08:47:35.246Z,102902.78
2023-02-08T08:50:02.059Z,102906.16
2023-02-08T08:52:29.381Z,102905.34
2023-02-08T08:54:56.098Z,102907.03
2023-02-08T08:57:22.674Z,102901.16
2023-02-08T08:59:50.274Z,102897.59
2023-02-08T09:02:16.949Z,102898.72
2023-02-08T09:04:43.584Z,102895.94
2023-02-08T09:07:10.473Z,102896.19
2023-02-08T09:09:37.305Z,102894.09
2023-02-08T09:12:04.386Z,102892.03
2023-02-08T09:14:30.945Z,102892.59
2023-02-08T09:16:57.524Z,102898.72
2023-02-08T09:19:24.175Z,102898.72
2023-02-08T09:21:50.636Z,102901.22
2023-02-08T09:24:17.183Z,102901.53
2023-02-08T09:26:45.762Z,102900.69
2023-02-08T09:29:12.315Z,102903.47
2023-02-08T09:31:39.698Z,102897.88
2023-02-08T09:34:06.618Z,102895.66
2023-02-08T09:36:35.212Z,102890.09
2023-02-08T09:39:06.165Z,102896.63
2023-02-08T09:41:39.719Z,102897.72
2023-02-08T09:44:18.628Z,102899.94
2023-02-08T09:46:56.078Z,102894.38
2023-02-08T09:49:26.216Z,102892.00
2023-02-08T09:51:56.969Z,102882.53
2023-02-08T09:54:29.880Z,102883.06
2023-02-08T09:56:58.465Z,102878.72
2023-02-08T09:59:28.123Z,102878.00
2023-02-08T10:02:04.428Z,102881.06
2023-02-08T10:04:40.175Z,102870.03
2023-02-08T10:07:08.840Z,102879.06
2023-02-08T10:09:35.773Z,102870.47
2023-02-08T10:12:12.813Z,102860.47
2023-02-08T10:14:39.393Z,102870.19
2023-02-08T10:17:05.992Z,102866.63
2023-02-08T10:19:38.744Z,102863.63
2023-02-08T10:22:25.479Z,102865.78
2023-02-08T10:24:58.105Z,102867.16
2023-02-08T10:27:33.780Z,102867.41
2023-02-08T10:30:36.023Z,102860.81
2023-02-08T10:33:07.049Z,102867.03
2023-02-08T10:35:37.454Z,102857.25
2023-02-08T10:38:13.165Z,102851.91
2023-02-08T10:40:40.843Z,102848.66
2023-02-08T10:43:26.314Z,102841.63
2023-02-08T10:46:09.198Z,102831.19
2023-02-08T10:48:38.821Z,102818.47
2023-02-08T10:51:05.886Z,102808.06
2023-02-08T10:53:33.631Z,102796.41
2023-02-08T10:56:00.209Z,102807.38
2023-02-08T10:58:26.849Z,102800.38
2023-02-08T11:00:54.398Z,102787.94
2023-02-08T11:03:28.409Z,102788.59
2023-02-08T11:05:55.491Z,102782.81
2023-02-08T11:08:23.474Z,102785.88
2023-02-08T11:10:58.143Z,102788.16
2023-02-08T11:13:28.036Z,102781.59
2023-02-08T11:15:59.022Z,102760.97
2023-02-08T11:18:33.192Z,102755.78
2023-02-08T11:21:02.077Z,102756.72
2023-02-08T11:23:31.053Z,102749.19
2023-02-08T11:26:17.833Z,102745.97
2023-02-08T11:28:44.575Z,102744.97
2023-02-08T11:31:20.881Z,102745.84
2023-02-08T11:34:04.495Z,102732.00
2023-02-08T11:36:32.839Z,102731.50
2023-02-08T11:39:01.461Z,102727.50
2023-02-08T11:41:28.274Z,102716.72
2023-02-08T11:44:00.979Z,102713.81
2023-02-08T11:46:28.624Z,102718.56
2023-02-08T11:48:56.122Z,102717.41
2023-02-08T11:51:28.173Z,102711.38
2023-02-08T11:53:54.805Z,102709.97
2023-02-08T11:56:22.662Z,102705.69
2023-02-08T11:59:08.172Z,102702.94
2023-02-08T12:01:36.787Z,102701.41
2023-02-08T12:04:05.816Z,102706.22
2023-02-08T12:06:32.353Z,102700.91
2023-02-08T12:09:03.547Z,102698.72
2023-02-08T12:11:46.776Z,102693.22
2023-02-08T12:14:24.314Z,102690.63
2023-02-08T12:17:04.926Z,102694.97
2023-02-08T12:19:50.195Z,102697.50
2023-02-08T12:22:27.759Z,102693.34
2023-02-08T12:24:57.367Z,102681.44
2023-02-08T12:27:40.935Z,102682.28
2023-02-08T12:30:26.471Z,102673.81
2023-02-08T12:33:01.540Z,102671.41
2023-02-08T12:35:45.727Z,102663.59
2023-02-08T12:38:42.406Z,102652.75
2023-02-08T12:41:15.086Z,102654.78
2023-02-08T12:43:58.653Z,102645.19
2023-02-08T12:46:31.507Z,102645.59
2023-02-08T12:49:13.538Z,102652.91
2023-02-08T12:51:47.046Z,102649.47
2023-02-08T12:54:22.863Z,102638.56
2023-02-08T12:57:01.512Z,102629.41
2023-02-08T12:59:35.696Z,102625.00
2023-02-08T13:02:05.369Z,102627.19
2023-02-08T13:04:35.616Z,102627.31
2023-02-08T13:07:04.345Z,102624.09
2023-02-08T13:09:36.947Z,102628.38
2023-02-08T13:12:06.705Z,102628.84
2023-02-08T13:14:40.119Z,102628.44
2023-02-08T13:17:29.751Z,102632.88
2023-02-08T13:20:02.999Z,102625.00
2023-02-08T13:22:32.388Z,102613.53
2023-02-08T13:25:08.483Z,102618.81
2023-02-08T13:27:35.692Z,102620.75
2023-02-08T13:30:02.556Z,102613.97
2023-02-08T13:32:31.833Z,102617.16
2023-02-08T13:35:03.665Z,102622.38
2023-02-08T13:37:32.377Z,102618.22
2023-02-08T13:40:01.711Z,102608.25
2023-02-08T13:42:31.645Z,102602.50
2023-02-08T13:44:58.411Z,102605.72
2023-02-08T13:47:27.326Z,102603.16
2023-02-08T13:50:07.539Z,102597.38
2023-02-08T13:52:46.902Z,102590.22
2023-02-08T13:55:41.503Z,102596.47
2023-02-08T13:58:14.315Z,102596.03
2023-02-08T14:01:02.303Z,102593.47
2023-02-08T14:03:29.826Z,102595.41
2023-02-08T14:06:01.677Z,102596.16
2023-02-08T14:08:28.153Z,102593.97
2023-02-08T14:11:20.583Z,102585.69
2023-02-08T14:14:16.126Z,102590.97
2023-02-08T14:16:47.265Z,102588.13
2023-02-08T14:19:18.169Z,102579.09
2023-02-08T14:21:46.963Z,102576.88
2023-02-08T14:24:19.457Z,102579.34
2023-02-08T14:26:46.272Z,102564.78
2023-02-08T14:29:21.668Z,102573.88
2023-02-08T14:31:49.118Z,102558.63
2023-02-08T14:34:34.338Z,102556.94
2023-02-08T14:37:10.874Z,102567.25
2023-02-08T14:39:37.579Z,102551.44
2023-02-08T14:42:09.820Z,102553.66
2023-02-08T14:44:39.490Z,102554.28
2023-02-08T14:47:09.152Z,102556.44
2023-02-08T14:49:37.625Z,102550.97
2023-02-08T14:52:07.077Z,102548.69
2023-02-08T14:54:33.487Z,102543.47
2023-02-08T14:57:02.442Z,102533.09
2023-02-08T14:59:31.461Z,102530.13
2023-02-08T15:02:00.188Z,102520.56
2023-02-08T15:04:27.340Z,102524.63
2023-02-08T15:06:55.215Z,102521.53
2023-02-08T15:09:23.862Z,102515.25
2023-02-08T15:11:53.415Z,102515.44
2023-02-08T15:14:21.587Z,102516.66
2023-02-08T15:16:48.384Z,102510.88
2023-02-08T15:19:27.609Z,102514.94
2023-02-08T15:21:54.677Z,102522.66
2023-02-08T15:24:22.626Z,102513.78
2023-02-08T15:26:53.785Z,102513.88
2023-02-08T15:29:24.604Z,102511.94
2023-02-08T15:31:53.837Z,102514.97
2023-02-08T15:34:22.195Z,102514.72
2023-02-08T15:36:53.976Z,102516.47
2023-02-08T15:39:26.659Z,102509.88
2023-02-08T15:41:56.620Z,102519.25
2023-02-08T15:44:24.829Z,102502.31
2023-02-08T15:46:55.912Z,102498.56
2023-02-08T15:49:33.798Z,102496.78
2023-02-08T15:52:00.927Z,102494.00
2023-02-08T15:54:27.626Z,102498.22
2023-02-08T15:57:05.909Z,102496.13
2023-02-08T15:59:34.759Z,102501.69
2023-02-08T16:02:21.187Z,102497.41
2023-02-08T16:04:47.853Z,102501.41
2023-02-08T16:07:34.585Z,102498.00
2023-02-08T16:10:01.439Z,102509.34
2023-02-08T16:12:28.696Z,102504.44
2023-02-08T16:14:58.678Z,102503.78
2023-02-08T16:17:32.361Z,102505.16
2023-02-08T16:19:58.983Z,102509.22
2023-02-08T16:22:31.992Z,102514.44
2023-02-08T16:25:17.382Z,102518.94
2023-02-08T16:27:47.423Z,102508.66
2023-02-08T16:30:19.324Z,102520.00
2023-02-08T16:32:46.811Z,102518.06
2023-02-08T16:35:14.434Z,102524.41
2023-02-08T16:37:41.159Z,102523.78
2023-02-08T16:40:27.041Z,102532.13
2023-02-08T16:43:13.502Z,102530.03
2023-02-08T16:45:40.112Z,102525.25
2023-02-08T16:48:28.501Z,102532.56
2023-02-08T16:50:55.358Z,102538.44
2023-02-08T16:53:25.964Z,102536.63
2023-02-08T16:55:57.219Z,102535.69
2023-02-08T16:58:27.010Z,102539.69
2023-02-08T17:00:53.984Z,102546.31
2023-02-08T17:03:20.674Z,102547.00
2023-02-08T17:05:47.357Z,102543.16
2023-02-08T17:08:18.261Z,102546.19
2023-02-08T17:10:45.539Z,102543.38
2023-02-08T17:13:20.219Z,102546.34
2023-02-08T17:15:48.881Z,102553.66
2023-02-08T17:18:15.626Z,102550.34
2023-02-08T17:20:42.876Z,102553.50
2023-02-08T17:23:09.649Z,102552.63
2023-02-08T17:25:36.645Z,102552.47
2023-02-08T17:28:05.027Z,102565.56
2023-02-08T17:30:36.687Z,102565.84
2023-02-08T17:33:11.428Z,102575.63
2023-02-08T17:35:38.201Z,102571.09
2023-02-08T17:38:05.332Z,102568.78
2023-02-08T17:40:34.014Z,102567.44
2023-02-08T17:43:00.943Z,102570.78
2023-02-08T17:45:28.273Z,102564.78
2023-02-08T17:47:55.449Z,102559.97
2023-02-08T17:50:22.434Z,102563.16
2023-02-08T17:52:49.051Z,102560.16
2023-02-08T17:55:16.337Z,102559.16
2023-02-08T17:57:44.716Z,102567.97
2023-02-08T18:00:13.115Z,102577.22
2023-02-08T18:02:44.176Z,102576.41
2023-02-08T18:05:10.696Z,102570.78
2023-02-08T18:07:37.165Z,102576.06
2023-02-08T18:10:04.206Z,102577.06
2023-02-08T18:12:30.792Z,102572.41
2023-02-08T18:14:57.336Z,102578.56
2023-02-08T18:17:23.954Z,102567.44
2023-02-08T18:19:50.571Z,102585.00
2023-02-08T18:22:17.221Z,102581.88
2023-02-08T18:24:43.899Z,102580.03
2023-02-08T18:27:10.393Z,102584.53
2023-02-08T18:29:37.006Z,102574.06
2023-02-08T18:32:03.883Z,102575.22
2023-02-08T18:34:30.533Z,102578.19
2023-02-08T18:36:57.383Z,102578.38
2023-02-08T18:39:24.224Z,102580.69
2023-02-08T18:41:51.740Z,102565.09
2023-02-08T18:44:19.008Z,102571.72
2023-02-08T18:46:47.750Z,102568.03
2023-02-08T18:49:16.020Z,102582.59
2023-02-08T18:51:45.992Z,102575.63
2023-02-08T18:54:16.860Z,102563.69
2023-02-08T18:56:44.341Z,102560.66
2023-02-08T18:59:11.355Z,102559.31
2023-02-08T19:01:37.974Z,102565.63
2023-02-08T19:04:04.801Z,102568.41
2023-02-08T19:06:32.617Z,102562.28
2023-02-08T19:09:01.652Z,102567.94
2023-02-08T19:11:29.867Z,102563.94
2023-02-08T19:13:57.666Z,102562.41
2023-02-08T19:16:24.658Z,102560.56
2023-02-08T19:18:53.038Z,102565.19
2023-02-08T19:21:20.430Z,102567.50
2023-02-08T19:23:47.573Z,102575.16
2023-02-08T19:26:20.128Z,102572.50
2023-02-08T19:28:46.663Z,102577.81
2023-02-08T19:31:14.967Z,102581.13
2023-02-08T19:33:42.833Z,102580.41
2023-02-08T19:36:10.925Z,102577.56
2023-02-08T19:38:37.422Z,102583.97
2023-02-08T19:41:05.151Z,102576.69
2023-02-08T19:43:31.688Z,102578.69
2023-02-08T19:45:59.893Z,102581.91
2023-02-08T19:48:26.742Z,102578.59
2023-02-08T19:50:54.628Z,102574.41
2023-02-08T19:53:21.119Z,102571.25
2023-02-08T19:56:07.928Z,102561.56
2023-02-08T19:58:35.138Z,102566.31
2023-02-08T20:01:18.495Z,102563.06
2023-02-08T20:03:45.878Z,102561.31
2023-02-08T20:06:15.505Z,102554.50
2023-02-08T20:08:42.161Z,102550.66
2023-02-08T20:11:15.461Z,102553.91
2023-02-08T20:13:41.944Z,102549.81
2023-02-08T20:16:08.508Z,102545.28
2023-02-08T20:18:35.088Z,102546.25
2023-02-08T20:21:02.517Z,102540.97
2023-02-08T20:23:30.648Z,102547.25
2023-02-08T20:26:23.594Z,102534.63
2023-02-08T20:28:54.027Z,102548.59
2023-02-08T20:31:22.729Z,102552.53
2023-02-08T20:33:49.523Z,102552.00
2023-02-08T20:36:17.360Z,102559.00
2023-02-08T20:38:43.875Z,102569.44
2023-02-08T20:41:11.600Z,102563.03
2023-02-08T20:43:38.063Z,102568.47
2023-02-08T20:46:05.850Z,102568.22
2023-02-08T20:48:32.574Z,102574.94
2023-02-08T20:51:09.779Z,102562.69
2023-02-08T20:53:37.261Z,102558.00
2023-02-08T20:56:11.299Z,102563.88
2023-02-08T20:58:38.556Z,102557.16
2023-02-08T21:01:12.402Z,102565.06
2023-02-08T21:03:38.955Z,102559.09
2023-02-08T21:06:16.072Z,102561.03
2023-02-08T21:08:43.046Z,102559.69
2023-02-08T21:11:10.046Z,102560.25
2023-02-08T21:13:37.124Z,102561.44
2023-02-08T21:16:04.787Z,102554.09
2023-02-08T21:18:31.310Z,102561.22
2023-02-08T21:20:58.739Z,102564.00
2023-02-08T21:23:25.505Z,102561.22
2023-02-08T21:25:52.082Z,102555.94
2023-02-08T21:28:18.784Z,102560.25
2023-02-08T21:30:45.941Z,102558.19
2023-02-08T21:33:14.246Z,102552.09
2023-02-08T21:35:41.162Z,102559.13
2023-02-08T21:38:07.697Z,102555.13
2023-02-08T21:40:34.613Z,102554.56
2023-02-08T21:43:01.128Z,102551.09
2023-02-08T21:45:27.675Z,102543.13
2023-02-08T21:47:54.831Z,102541.19
2023-02-08T21:50:39.903Z,102532.50
2023-02-08T21:53:25.099Z,102533.94
2023-02-08T21:55:51.618Z,102522.94
2023-02-08T21:58:19.471Z,102525.00
2023-02-08T22:01:00.257Z,102520.03
2023-02-08T22:03:29.070Z,102515.03
2023-02-08T22:06:14.853Z,102514.00
2023-02-08T22:08:41.576Z,102513.31
2023-02-08T22:11:08.986Z,102511.09
2023-02-08T22:13:35.592Z,102512.75
2023-02-08T22:16:06.897Z,102516.00
2023-02-08T22:18:33.404Z,102512.44
2023-02-08T22:21:00.124Z,102512.72
2023-02-08T22:23:26.668Z,102513.41
2023-02-08T22:25:53.857Z,102511.88
2023-02-08T22:28:20.525Z,102513.09
2023-02-08T22:30:48.265Z,102503.78
2023-02-08T22:33:15.086Z,102506.84
2023-02-08T22:35:41.915Z,102508.75
2023-02-08T22:38:08.399Z,102502.88
2023-02-08T22:40:34.982Z,102506.63
2023-02-08T22:43:01.547Z,102501.13
2023-02-08T22:45:28.102Z,102502.50
2023-02-08T22:47:54.701Z,102496.34
2023-02-08T22:50:21.188Z,102496.25
2023-02-08T22:52:47.843Z,102493.16
2023-02-08T22:55:14.464Z,102489.56
2023-02-08T22:57:43.612Z,102494.84
2023-02-08T23:00:10.582Z,102503.75
2023-02-08T23:02:38.354Z,102492.19
2023-02-08T23:05:04.984Z,102494.84
2023-02-08T23:07:31.646Z,102496.25
2023-02-08T23:09:58.186Z,102502.97
2023-02-08T23:12:24.685Z,102501.31
2023-02-08T23:14:51.337Z,102498.81
2023-02-08T23:17:18.135Z,102485.31
2023-02-08T23:19:44.978Z,102481.03
2023-02-08T23:22:11.556Z,102481.22
2023-02-08T23:24:38.086Z,102479.09
2023-02-08T23:27:04.785Z,102482.63
2023-02-08T23:29:31.487Z,102482.72
2023-02-08T23:31:58.009Z,102487.53
2023-02-08T23:34:26.060Z,102489.28
2023-02-08T23:36:52.652Z,102482.47
2023-02-08T23:39:19.225Z,102492.56
2023-02-08T23:41:47.431Z,102481.72
2023-02-08T23:44:14.001Z,102488.97
2023-02-08T23:46:40.576Z,102491.34
2023-02-08T23:49:07.176Z,102496.22
2023-02-08T23:51:33.689Z,102486.50
2023-02-08T23:54:00.238Z,102489.97
2023-02-08T23:56:31.356Z,102490.66
2023-02-08T23:58:58.438Z,102501.59
